createdAt,value
2022-08-21T00:00:48.661Z,15.30
2022-08-21T00:03:53.563Z,13.43
2022-08-21T00:07:03.462Z,13.82
2022-08-21T00:10:12.728Z,13.90
2022-08-21T00:13:22.722Z,14.45
2022-08-21T00:16:32.816Z,15.27
2022-08-21T00:19:35.264Z,14.00
2022-08-21T00:22:43.883Z,14.43
2022-08-21T00:25:47.187Z,14.38
2022-08-21T00:28:58.962Z,14.07
2022-08-21T00:32:01.160Z,14.45
2022-08-21T00:35:09.725Z,15.50
2022-08-21T00:38:12.254Z,14.13
2022-08-21T00:41:37.687Z,14.35
2022-08-21T00:44:53.673Z,14.57
2022-08-21T00:48:03.834Z,14.73
2022-08-21T00:51:14.081Z,15.32
2022-08-21T00:54:23.863Z,15.05
2022-08-21T00:57:35.023Z,14.60
2022-08-21T01:00:46.769Z,15.10
2022-08-21T01:03:50.150Z,16.38
2022-08-21T01:06:59.727Z,15.13
2022-08-21T01:10:02.081Z,15.20
2022-08-21T01:13:12.880Z,15.00
2022-08-21T01:16:18.026Z,14.77
2022-08-21T01:19:28.879Z,15.65
2022-08-21T01:22:31.162Z,15.30
2022-08-21T01:25:40.847Z,17.70
2022-08-21T01:28:49.120Z,16.13
2022-08-21T01:31:57.825Z,16.40
2022-08-21T01:35:01.713Z,16.33
2022-08-21T01:38:10.724Z,17.60
2022-08-21T01:41:13.000Z,17.30
2022-08-21T01:44:23.032Z,19.25
2022-08-21T01:47:38.661Z,18.48
2022-08-21T01:50:49.209Z,18.30
2022-08-21T01:53:59.104Z,17.63
2022-08-21T01:57:08.832Z,17.23
2022-08-21T02:00:22.726Z,16.23
2022-08-21T02:03:35.609Z,18.08
2022-08-21T02:06:38.094Z,18.70
2022-08-21T02:09:46.885Z,18.85
2022-08-21T02:12:56.080Z,23.65
2022-08-21T02:15:58.882Z,22.77
2022-08-21T02:19:07.823Z,26.38
2022-08-21T02:22:10.101Z,24.52
2022-08-21T02:25:18.729Z,27.50
2022-08-21T02:28:30.703Z,26.88
2022-08-21T02:31:34.558Z,25.35
2022-08-21T02:37:55.581Z,25.65
2022-08-21T02:41:06.720Z,23.65
2022-08-21T02:44:08.920Z,24.35
2022-08-21T02:47:17.786Z,22.35
2022-08-21T02:50:25.066Z,21.52
2022-08-21T02:53:36.838Z,22.60
2022-08-21T02:56:45.729Z,21.52
2022-08-21T02:59:49.075Z,21.85
2022-08-21T03:02:59.100Z,20.83
2022-08-21T03:06:02.093Z,18.58
2022-08-21T03:09:10.823Z,16.85
2022-08-21T03:12:14.110Z,15.77
2022-08-21T03:15:26.826Z,16.23
2022-08-21T03:18:30.125Z,15.27
2022-08-21T03:21:38.830Z,16.88
2022-08-21T03:24:42.908Z,15.45
2022-08-21T03:27:46.810Z,14.35
2022-08-21T03:30:53.097Z,13.75
2022-08-21T03:34:03.704Z,16.08
2022-08-21T03:37:09.904Z,15.27
2022-08-21T03:40:21.692Z,16.33
2022-08-21T03:43:23.963Z,16.35
2022-08-21T03:46:38.700Z,14.85
2022-08-21T03:49:48.870Z,12.98
2022-08-21T03:52:51.174Z,15.57
2022-08-21T03:56:00.823Z,17.70
2022-08-21T03:59:04.660Z,18.23
2022-08-21T04:02:15.725Z,17.65
2022-08-21T04:05:38.151Z,16.85
2022-08-21T04:08:46.829Z,20.33
2022-08-21T04:11:49.400Z,16.08
2022-08-21T04:15:01.830Z,18.60
2022-08-21T04:18:04.093Z,17.45
2022-08-21T04:21:13.725Z,18.35
2022-08-21T04:24:24.821Z,17.52
2022-08-21T04:27:31.904Z,18.88
2022-08-21T04:30:41.862Z,18.33
2022-08-21T04:33:44.026Z,19.48
2022-08-21T04:36:53.727Z,23.85
2022-08-21T04:39:58.504Z,22.58
2022-08-21T04:43:11.878Z,20.92
2022-08-21T04:46:14.080Z,21.57
2022-08-21T04:49:28.733Z,23.10
2022-08-21T04:52:31.439Z,24.38
2022-08-21T04:55:41.758Z,24.00
2022-08-21T04:58:46.073Z,25.52
2022-08-21T05:05:00.180Z,22.25
2022-08-21T05:08:09.715Z,21.20
2022-08-21T05:11:13.297Z,20.33
2022-08-21T05:14:21.737Z,19.40
2022-08-21T05:17:25.521Z,22.17
2022-08-21T05:20:44.810Z,23.20
2022-08-21T05:23:53.806Z,21.90
2022-08-21T05:27:03.975Z,19.17
2022-08-21T05:30:07.093Z,16.50
2022-08-21T05:33:18.812Z,17.73
2022-08-21T05:36:21.363Z,21.92
2022-08-21T05:39:29.826Z,21.15
2022-08-21T05:43:03.795Z,22.63
2022-08-21T05:46:06.338Z,28.23
2022-08-21T05:49:14.807Z,29.23
2022-08-21T05:52:35.943Z,28.13
2022-08-21T05:55:44.271Z,26.67
2022-08-21T05:58:54.923Z,29.45
2022-08-21T06:01:57.007Z,27.63
2022-08-21T06:05:05.745Z,26.35
2022-08-21T06:08:07.911Z,25.55
2022-08-21T06:11:20.780Z,23.52
2022-08-21T06:14:22.938Z,22.35
2022-08-21T06:17:31.821Z,22.42
2022-08-21T06:20:40.816Z,19.02
2022-08-21T06:23:44.076Z,17.83
2022-08-21T06:26:52.711Z,17.33
2022-08-21T06:30:01.715Z,18.52
2022-08-21T06:33:05.098Z,16.80
2022-08-21T06:36:13.810Z,15.47
2022-08-21T06:39:25.535Z,14.38
2022-08-21T06:42:34.168Z,15.57
2022-08-21T06:45:43.818Z,13.75
2022-08-21T06:48:46.110Z,14.55
2022-08-21T06:52:01.886Z,14.13
2022-08-21T06:55:03.950Z,12.70
2022-08-21T06:58:12.797Z,11.30
2022-08-21T07:01:21.834Z,10.23
2022-08-21T07:04:27.119Z,8.57
2022-08-21T07:07:35.801Z,9.20
2022-08-21T07:10:38.306Z,9.23
2022-08-21T07:13:47.710Z,8.45
2022-08-21T07:16:57.635Z,9.65
2022-08-21T07:20:00.920Z,8.18
2022-08-21T07:23:11.825Z,8.65
2022-08-21T07:26:16.135Z,8.45
2022-08-21T07:29:24.736Z,8.02
2022-08-21T07:32:33.808Z,8.43
2022-08-21T07:35:36.079Z,8.07
2022-08-21T07:38:46.584Z,10.05
2022-08-21T07:41:55.699Z,9.10
2022-08-21T07:44:58.369Z,8.82
2022-08-21T07:48:07.796Z,8.57
2022-08-21T07:51:20.133Z,9.82
2022-08-21T07:54:33.293Z,8.82
2022-08-21T07:57:36.141Z,8.80
2022-08-21T08:00:45.728Z,7.85
2022-08-21T08:03:48.552Z,9.55
2022-08-21T08:06:58.784Z,9.32
2022-08-21T08:10:00.912Z,7.53
2022-08-21T08:13:10.816Z,8.45
2022-08-21T08:16:13.262Z,10.70
2022-08-21T08:19:21.893Z,7.57
2022-08-21T08:22:26.057Z,7.60
2022-08-21T08:25:37.051Z,6.57
2022-08-21T08:28:50.726Z,7.95
2022-08-21T08:31:59.874Z,8.00
2022-08-21T08:35:02.211Z,8.10
2022-08-21T08:38:13.871Z,8.00
2022-08-21T08:41:30.613Z,7.85
2022-08-21T08:44:39.797Z,8.02
2022-08-21T08:47:53.725Z,6.70
2022-08-21T08:51:07.714Z,8.98
2022-08-21T08:54:22.102Z,8.80
2022-08-21T08:57:04.754Z,7.72
2022-08-21T09:02:37.862Z,8.07
2022-08-21T09:05:46.687Z,10.95
2022-08-21T09:09:09.753Z,10.68
2022-08-21T09:12:06.721Z,10.05
2022-08-21T09:15:27.191Z,8.23
2022-08-21T09:18:33.736Z,8.32
2022-08-21T09:21:41.000Z,8.90
2022-08-21T09:24:51.713Z,8.25
2022-08-21T09:27:34.114Z,7.53
2022-08-21T09:30:22.831Z,8.40
2022-08-21T09:33:11.729Z,8.73
2022-08-21T09:36:02.807Z,11.57
2022-08-21T09:38:53.792Z,13.13
2022-08-21T09:41:40.131Z,13.77
2022-08-21T09:44:28.824Z,12.70
2022-08-21T09:47:19.095Z,12.55
2022-08-21T09:50:00.855Z,11.60
2022-08-21T09:53:06.685Z,11.38
2022-08-21T09:56:37.803Z,11.30
2022-08-21T09:59:43.654Z,10.85
2022-08-21T10:02:47.799Z,10.23
2022-08-21T10:05:30.371Z,9.13
2022-08-21T10:08:18.802Z,9.90
2022-08-21T10:11:18.752Z,10.15
2022-08-21T10:14:12.815Z,10.07
2022-08-21T10:17:16.732Z,10.82
2022-08-21T10:20:17.823Z,11.40
2022-08-21T10:23:23.980Z,11.02
2022-08-21T10:26:46.815Z,10.93
2022-08-21T10:30:00.711Z,9.63
2022-08-21T10:36:02.175Z,10.00
2022-08-21T10:39:07.039Z,10.15
2022-08-21T10:42:19.542Z,12.32
2022-08-21T10:45:30.812Z,9.45
2022-08-21T10:48:24.093Z,10.35
2022-08-21T10:51:36.855Z,9.90
2022-08-21T10:54:53.118Z,9.73
2022-08-21T10:57:40.893Z,9.55
2022-08-21T11:01:06.732Z,9.15
2022-08-21T11:04:09.763Z,8.35
2022-08-21T11:07:21.071Z,8.68
2022-08-21T11:10:06.724Z,8.07
2022-08-21T11:12:57.013Z,7.95
2022-08-21T11:16:15.823Z,8.02
2022-08-21T11:19:32.012Z,8.15
2022-08-21T11:22:22.815Z,9.27
2022-08-21T11:25:23.096Z,9.38
2022-08-21T11:28:14.838Z,7.53
2022-08-21T11:31:21.841Z,6.72
2022-08-21T11:34:16.015Z,7.25
2022-08-21T11:37:40.728Z,6.70
2022-08-21T11:40:44.117Z,6.93
2022-08-21T11:43:53.744Z,8.18
2022-08-21T11:47:14.807Z,7.07
2022-08-21T11:50:37.816Z,7.43
2022-08-21T11:53:44.989Z,6.78
2022-08-21T11:56:53.754Z,5.95
2022-08-21T11:59:52.089Z,6.97
2022-08-21T12:02:42.868Z,7.60
2022-08-21T12:05:51.652Z,7.10
2022-08-21T12:08:43.797Z,6.68
2022-08-21T12:11:32.738Z,8.02
2022-08-21T12:14:24.719Z,6.70
2022-08-21T12:17:18.580Z,6.55
2022-08-21T12:20:32.731Z,6.30
2022-08-21T12:23:21.097Z,5.50
2022-08-21T12:26:19.768Z,5.93
2022-08-21T12:29:25.206Z,6.25
2022-08-21T12:32:32.711Z,5.72
2022-08-21T12:35:54.785Z,5.32
2022-08-21T12:39:12.076Z,6.05
2022-08-21T12:42:02.822Z,5.72
2022-08-21T12:45:03.105Z,7.00
2022-08-21T12:48:00.720Z,6.53
2022-08-21T12:50:58.652Z,6.30
2022-08-21T12:54:07.809Z,6.50
2022-08-21T12:57:12.103Z,7.70
2022-08-21T12:59:54.844Z,6.15
2022-08-21T13:02:53.739Z,6.68
2022-08-21T13:05:51.653Z,6.22
2022-08-21T13:08:50.810Z,6.55
2022-08-21T13:11:34.869Z,7.30
2022-08-21T13:14:35.756Z,6.75
2022-08-21T13:17:36.182Z,7.05
2022-08-21T13:20:41.852Z,6.78
2022-08-21T13:23:35.241Z,7.90
2022-08-21T13:26:28.884Z,8.77
2022-08-21T13:29:14.990Z,8.38
2022-08-21T13:32:15.786Z,8.05
2022-08-21T13:35:04.773Z,8.65
2022-08-21T13:37:50.776Z,10.23
2022-08-21T13:40:48.853Z,7.95
2022-08-21T13:43:36.133Z,8.77
2022-08-21T13:46:26.864Z,8.40
2022-08-21T13:49:11.906Z,8.73
2022-08-21T13:52:00.817Z,8.25
2022-08-21T13:54:49.057Z,9.30
2022-08-21T13:57:40.718Z,8.32
2022-08-21T14:00:38.498Z,8.32
2022-08-21T14:03:51.849Z,7.93
2022-08-21T14:06:51.711Z,8.85
2022-08-21T14:09:58.809Z,8.85
2022-08-21T14:12:53.185Z,8.45
2022-08-21T14:15:38.864Z,8.68
2022-08-21T14:18:21.935Z,8.60
2022-08-21T14:21:24.967Z,8.73
2022-08-21T14:24:58.508Z,9.43
2022-08-21T14:30:44.472Z,8.77
2022-08-21T14:33:43.183Z,9.35
2022-08-21T14:36:31.083Z,9.13
2022-08-21T14:39:19.863Z,8.75
2022-08-21T14:42:11.846Z,9.85
2022-08-21T14:44:58.072Z,10.77
2022-08-21T14:47:48.911Z,9.85
2022-08-21T14:50:34.184Z,9.30
2022-08-21T14:53:30.768Z,9.05
2022-08-21T14:56:14.044Z,9.63
2022-08-21T14:59:04.930Z,9.52
2022-08-21T15:01:54.913Z,10.60
2022-08-21T15:04:37.722Z,9.98
2022-08-21T15:07:34.970Z,9.35
2022-08-21T15:10:25.880Z,10.13
2022-08-21T15:13:16.952Z,10.75
2022-08-21T15:16:07.221Z,9.82
2022-08-21T15:18:50.910Z,10.35
2022-08-21T15:21:40.061Z,9.90
2022-08-21T15:24:22.828Z,11.07
2022-08-21T15:27:16.749Z,10.25
2022-08-21T15:30:00.601Z,10.57
2022-08-21T15:32:50.812Z,11.07
2022-08-21T15:35:34.240Z,13.10
2022-08-21T15:41:15.929Z,11.43
2022-08-21T15:44:00.053Z,12.18
2022-08-21T15:49:41.350Z,11.05
2022-08-21T15:52:27.893Z,10.95
2022-08-21T15:55:20.730Z,11.93
2022-08-21T15:58:05.907Z,11.60
2022-08-21T16:00:49.113Z,11.65
2022-08-21T16:03:37.955Z,11.38
2022-08-21T16:06:38.597Z,10.98
2022-08-21T16:09:37.761Z,11.23
2022-08-21T16:12:41.811Z,10.90
2022-08-21T16:15:37.815Z,11.52
2022-08-21T16:18:34.783Z,11.50
2022-08-21T16:21:30.896Z,12.20
2022-08-21T16:24:13.144Z,11.93
2022-08-21T16:27:03.827Z,12.70
2022-08-21T16:29:50.591Z,15.40
2022-08-21T16:32:39.863Z,14.77
2022-08-21T16:35:23.581Z,15.85
2022-08-21T16:38:12.843Z,16.92
2022-08-21T16:40:55.389Z,15.50
2022-08-21T16:43:45.830Z,14.80
2022-08-21T16:46:36.145Z,16.38
2022-08-21T16:49:17.846Z,14.65
2022-08-21T16:52:06.856Z,14.15
2022-08-21T16:54:49.230Z,14.32
2022-08-21T16:57:40.911Z,13.25
2022-08-21T17:00:29.873Z,11.75
2022-08-21T17:03:19.811Z,10.82
2022-08-21T17:06:10.411Z,10.93
2022-08-21T17:09:01.653Z,9.63
2022-08-21T17:11:56.843Z,8.73
2022-08-21T17:14:39.194Z,8.77
2022-08-21T17:17:28.983Z,9.85
2022-08-21T17:20:24.745Z,8.55
2022-08-21T17:23:19.943Z,8.35
2022-08-21T17:26:15.636Z,8.75
2022-08-21T17:29:04.810Z,8.27
2022-08-21T17:31:48.975Z,9.52
2022-08-21T17:34:37.823Z,13.38
2022-08-21T17:37:20.165Z,12.07
2022-08-21T17:40:08.738Z,11.43
2022-08-21T17:43:00.896Z,11.98
2022-08-21T17:45:51.801Z,10.02
2022-08-21T17:48:34.063Z,9.98
2022-08-21T17:51:25.844Z,10.30
2022-08-21T17:54:08.111Z,9.05
2022-08-21T17:56:57.747Z,8.85
2022-08-21T17:59:41.154Z,10.18
2022-08-21T18:02:30.847Z,9.25
2022-08-21T18:05:16.659Z,9.55
2022-08-21T18:08:05.880Z,9.02
2022-08-21T18:10:51.318Z,9.18
2022-08-21T18:13:44.736Z,9.90
2022-08-21T18:16:34.808Z,8.65
2022-08-21T18:19:26.334Z,8.57
2022-08-21T18:22:08.830Z,7.20
2022-08-21T18:25:05.650Z,7.38
2022-08-21T18:28:02.791Z,7.55
2022-08-21T18:30:52.073Z,8.50
2022-08-21T18:33:33.845Z,7.85
2022-08-21T18:36:22.106Z,7.43
2022-08-21T18:39:32.728Z,7.05
2022-08-21T18:42:18.128Z,9.23
2022-08-21T18:45:07.833Z,8.10
2022-08-21T18:48:00.066Z,8.90
2022-08-21T18:50:44.705Z,8.23
2022-08-21T18:53:36.814Z,8.38
2022-08-21T18:56:21.285Z,8.90
2022-08-21T18:59:11.825Z,8.63
2022-08-21T19:01:54.375Z,9.30
2022-08-21T19:04:45.178Z,8.07
2022-08-21T19:07:27.110Z,9.18
2022-08-21T19:10:27.384Z,8.38
2022-08-21T19:13:18.719Z,8.60
2022-08-21T19:16:09.617Z,7.95
2022-08-21T19:18:52.727Z,9.10
2022-08-21T19:21:42.024Z,7.70
2022-08-21T19:24:26.389Z,9.75
2022-08-21T19:27:34.039Z,9.68
2022-08-21T19:30:22.902Z,9.43
2022-08-21T19:33:05.229Z,9.63
2022-08-21T19:35:57.882Z,10.23
2022-08-21T19:38:40.230Z,9.43
2022-08-21T19:41:30.902Z,9.13
2022-08-21T19:44:16.072Z,10.93
2022-08-21T19:47:07.849Z,10.88
2022-08-21T19:49:57.348Z,10.07
2022-08-21T19:52:51.412Z,10.23
2022-08-21T19:55:40.168Z,10.75
2022-08-21T19:58:50.030Z,10.43
2022-08-21T20:01:40.932Z,10.93
2022-08-21T20:04:24.196Z,11.50
2022-08-21T20:07:15.856Z,10.82
2022-08-21T20:10:07.556Z,12.77
2022-08-21T20:13:03.735Z,11.60
2022-08-21T20:15:46.475Z,14.30
2022-08-21T20:18:35.655Z,14.18
2022-08-21T20:21:24.971Z,13.70
2022-08-21T20:24:08.838Z,13.10
2022-08-21T20:26:51.335Z,13.32
2022-08-21T20:32:44.826Z,11.48
2022-08-21T20:35:34.637Z,11.38
2022-08-21T20:38:17.116Z,11.90
2022-08-21T20:41:09.966Z,11.13
2022-08-21T20:44:05.043Z,11.23
2022-08-21T20:46:53.734Z,10.98
2022-08-21T20:49:49.762Z,12.65
2022-08-21T20:52:42.723Z,13.63
2022-08-21T20:55:29.573Z,11.70
2022-08-21T20:58:46.640Z,11.57
2022-08-21T21:01:31.018Z,11.43
2022-08-21T21:04:40.768Z,12.95
2022-08-21T21:07:32.173Z,11.23
2022-08-21T21:10:30.743Z,10.05
2022-08-21T21:13:31.837Z,11.55
2022-08-21T21:16:40.949Z,10.05
2022-08-21T21:19:54.196Z,10.20
2022-08-21T21:22:52.770Z,10.13
2022-08-21T21:25:54.257Z,10.32
2022-08-21T21:28:56.894Z,10.40
2022-08-21T21:31:46.851Z,10.55
2022-08-21T21:34:32.097Z,11.38
2022-08-21T21:37:38.732Z,11.18
2022-08-21T21:40:45.823Z,10.43
2022-08-21T21:43:54.009Z,10.30
2022-08-21T21:47:06.710Z,10.25
2022-08-21T21:50:26.863Z,9.90
2022-08-21T21:53:36.095Z,10.75
2022-08-21T21:56:36.833Z,11.57
2022-08-21T21:59:38.453Z,11.70
2022-08-21T22:02:34.873Z,11.07
2022-08-21T22:08:50.760Z,10.43
2022-08-21T22:12:02.050Z,10.10
2022-08-21T22:14:49.830Z,10.55
2022-08-21T22:17:54.140Z,11.00
2022-08-21T22:20:48.820Z,10.23
2022-08-21T22:23:43.834Z,10.40
2022-08-21T22:26:29.094Z,10.95
2022-08-21T22:29:26.768Z,11.55
2022-08-21T22:32:24.668Z,10.30
2022-08-21T22:35:21.855Z,10.40
2022-08-21T22:38:07.086Z,9.55
2022-08-21T22:40:55.824Z,9.85
2022-08-21T22:43:38.139Z,11.35
2022-08-21T22:46:52.819Z,13.05
2022-08-21T22:53:15.920Z,17.13
2022-08-21T22:56:07.137Z,17.70
2022-08-21T22:59:05.835Z,18.25
2022-08-21T23:01:53.132Z,19.37
2022-08-21T23:07:50.212Z,18.23
2022-08-21T23:10:56.827Z,21.05
2022-08-21T23:13:49.052Z,22.02
2022-08-21T23:16:47.351Z,20.85
2022-08-21T23:19:40.053Z,20.35
2022-08-21T23:22:47.813Z,20.17
2022-08-21T23:25:54.009Z,20.55
2022-08-21T23:28:54.738Z,19.63
2022-08-21T23:32:12.679Z,18.75
2022-08-21T23:35:55.828Z,20.02
2022-08-21T23:39:02.141Z,19.50
2022-08-21T23:41:59.793Z,20.00
2022-08-21T23:45:17.367Z,19.25
2022-08-21T23:48:37.738Z,19.02
2022-08-21T23:51:43.939Z,17.85
2022-08-21T23:54:52.119Z,18.55
2022-08-21T23:58:04.855Z,18.38
